الكل
Ballera Airport (Ballera, Queensland) BBL حالة الطقس
|
Ballera, Queensland (BBL / YLLE)
سماء صافية
رياح خفيفة |
|
28 °C |
توقع منطقة محطة المطارBBL
| Date | Time (AEST) | Flight Rules | Wind Dir. | Speed | Type | Height AGL (ft) | Visibility | Remarks | ||||||
|---|---|---|---|---|---|---|---|---|---|---|---|---|---|---|
| 31-أغس | 23:00 | VFR | 110° | 8 kt | Clouds and Visibility are OK | >= 6 miles | ||||||||
| 31-أغس | 22:00 | VFR | 110° | 8 kt | Clouds and Visibility are OK | >= 6 miles | ||||||||
| 31-أغس | 21:00 | VFR | 110° | 8 kt | Clouds and Visibility are OK | >= 6 miles | ||||||||
| 31-أغس | 20:00 | VFR | 110° | 8 kt | Clouds and Visibility are OK | >= 6 miles | ||||||||
| 31-أغس | 19:00 | VFR | 110° | 8 kt | Clouds and Visibility are OK | >= 6 miles | ||||||||
| 31-أغس | 18:00 | VFR | 70° | 11 kt | Clouds and Visibility are OK | >= 6 miles | ||||||||
| 31-أغس | 17:00 | VFR | 70° | 11 kt | Clouds and Visibility are OK | >= 6 miles | ||||||||
| 31-أغس | 16:00 | VFR | 70° | 11 kt | Clouds and Visibility are OK | >= 6 miles | ||||||||
محفوظات أحدث تقرير روتيني عن حالة الطقس من أجل الطيران (الميتار )BBL
| Date | Time (AEST) | Flight Rules | Wind Dir. | Speed | Type | Height AGL (ft) | Visibility | Temp (°C) | Temp (°F) | Dew Point (°C) | Dew Point (°F) | Rel. Humid. | Pressure | Density Altitude | Remarks |
|---|---|---|---|---|---|---|---|---|---|---|---|---|---|---|---|
| 31-أغس | 16:00 | VFR | 20° | 4 kt | 10000 meters | 28° | 82° | 2° | 35° | 19% | 1022 mb | 1,685 ft | |||
| 31-أغس | 15:00 | VFR | 30° | 5 kt | 10000 meters | 29° | 84° | 2° | 35° | 18% | 1022 mb | 1,805 ft | |||
| 31-أغس | 14:00 | VFR | 50° | 7 kt | 10000 meters | 28° | 82° | 2° | 35° | 19% | 1023 mb | 1,656 ft | |||
| 31-أغس | 13:00 | VFR | 60° | 6 kt | 10000 meters | 28° | 82° | 5° | 41° | 23% | 1024 mb | 1,626 ft | |||
| 31-أغس | 12:00 | VFR | 40° | 5 kt | 10000 meters | 26° | 78° | 5° | 41° | 26% | 1025 mb | 1,357 ft | |||
| 31-أغس | 11:00 | VFR | 80° | 9 kt | 10000 meters | 24° | 75° | 5° | 41° | 29% | 1026 mb | 1,087 ft | |||
| 31-أغس | 10:00 | VFR | 90° | 11 kt | 10000 meters | 21° | 69° | 6° | 42° | 38% | 1026 mb | 727 ft | |||
| 31-أغس | 09:00 | VFR | 130° | 12 kt | 10000 meters | 18° | 64° | 5° | 41° | 42% | 1026 mb | 367 ft | |||
| 31-أغس | 08:00 | VFR | 130° | 11 kt | 10000 meters | 15° | 59° | 5° | 41° | 51% | 1026 mb | 7 ft | |||
| 31-أغس | 07:00 | VFR | 140° | 9 kt | 10000 meters | 12° | 53° | 4° | 39° | 58% | 1026 mb | -353 ft | |||
| 31-أغس | 06:00 | VFR | 140° | 9 kt | 10000 meters | 12° | 53° | 4° | 39° | 58% | 1025 mb | -323 ft | |||
| 31-أغس | 05:00 | VFR | 130° | 8 kt | 10000 meters | 12° | 53° | 4° | 39° | 58% | 1025 mb | -323 ft | |||
| 31-أغس | 04:00 | VFR | 130° | 9 kt | 10000 meters | 12° | 53° | 4° | 39° | 58% | 1025 mb | -323 ft | |||
| 31-أغس | 03:00 | VFR | 130° | 9 kt | 10000 meters | 13° | 55° | 4° | 39° | 54% | 1025 mb | -203 ft | |||
| 31-أغس | 02:00 | VFR | 140° | 9 kt | 10000 meters | 13° | 55° | 4° | 39° | 54% | 1025 mb | -203 ft | |||
| 31-أغس | 01:00 | VFR | 150° | 10 kt | 10000 meters | 14° | 57° | 5° | 41° | 55% | 1026 mb | -113 ft | |||
| 31-أغس | 00:00 | VFR | 150° | 9 kt | 10000 meters | 14° | 57° | 6° | 42° | 58% | 1026 mb | -113 ft | |||
| 30-أغس | 23:00 | VFR | 150° | 7 kt | 10000 meters | 14° | 57° | 6° | 42° | 58% | 1026 mb | -113 ft | |||
| 30-أغس | 22:00 | VFR | 170° | 7 kt | 10000 meters | 15° | 59° | 4° | 39° | 48% | 1026 mb | 7 ft | |||
| 30-أغس | 21:00 | VFR | 150° | 10 kt | 10000 meters | 17° | 62° | 4° | 39° | 42% | 1026 mb | 247 ft | |||
| 30-أغس | 20:00 | VFR | 160° | 9 kt | 10000 meters | 18° | 64° | 5° | 41° | 42% | 1025 mb | 397 ft | |||
| 30-أغس | 19:00 | VFR | 160° | 9 kt | 10000 meters | 19° | 66° | 3° | 37° | 34% | 1025 mb | 517 ft | |||
| 30-أغس | 18:00 | VFR | 150° | 12 kt | 10000 meters | 23° | 73° | 1° | 33° | 23% | 1025 mb | 997 ft | |||
| 30-أغس | 17:00 | VFR | 140° | 11 kt | 10000 meters | 24° | 75° | 1° | 33° | 22% | 1024 mb | 1,146 ft |
تسجيل الدخول
| مُتصفحك غير مُدعَّم. قم بترقية متصفحك |
